sensor_id;sensor_type;location;lat;lon;timestamp;P1;durP1;ratioP1;P2;durP2;ratioP2
73816;SDS011;62146;53.232;-1.304;2023-03-29T00:02:04;7.22;;;3.60;;
73816;SDS011;62146;53.232;-1.304;2023-03-29T00:04:32;6.10;;;3.20;;
73816;SDS011;62146;53.232;-1.304;2023-03-29T00:06:59;7.77;;;3.50;;
73816;SDS011;62146;53.232;-1.304;2023-03-29T00:09:30;8.50;;;3.70;;
73816;SDS011;62146;53.232;-1.304;2023-03-29T00:11:58;9.55;;;4.10;;
73816;SDS011;62146;53.232;-1.304;2023-03-29T00:14:26;8.05;;;3.60;;
73816;SDS011;62146;53.232;-1.304;2023-03-29T00:16:55;6.32;;;3.30;;
73816;SDS011;62146;53.232;-1.304;2023-03-29T00:19:23;8.50;;;3.40;;
73816;SDS011;62146;53.232;-1.304;2023-03-29T00:21:49;6.47;;;3.63;;
73816;SDS011;62146;53.232;-1.304;2023-03-29T00:24:16;8.32;;;3.80;;
73816;SDS011;62146;53.232;-1.304;2023-03-29T00:26:42;8.57;;;3.55;;
73816;SDS011;62146;53.232;-1.304;2023-03-29T00:29:11;9.70;;;3.85;;
73816;SDS011;62146;53.232;-1.304;2023-03-29T00:31:38;8.97;;;3.70;;
73816;SDS011;62146;53.232;-1.304;2023-03-29T00:34:04;8.90;;;4.10;;
73816;SDS011;62146;53.232;-1.304;2023-03-29T00:36:31;8.57;;;3.78;;
73816;SDS011;62146;53.232;-1.304;2023-03-29T00:38:58;9.38;;;3.95;;
73816;SDS011;62146;53.232;-1.304;2023-03-29T00:41:24;6.47;;;3.47;;
73816;SDS011;62146;53.232;-1.304;2023-03-29T00:43:58;6.73;;;3.33;;
73816;SDS011;62146;53.232;-1.304;2023-03-29T00:46:27;7.82;;;3.60;;
73816;SDS011;62146;53.232;-1.304;2023-03-29T00:49:05;8.98;;;3.95;;
73816;SDS011;62146;53.232;-1.304;2023-03-29T00:51:38;6.60;;;3.58;;
73816;SDS011;62146;53.232;-1.304;2023-03-29T00:54:07;7.88;;;3.88;;
73816;SDS011;62146;53.232;-1.304;2023-03-29T00:56:40;8.17;;;3.73;;
73816;SDS011;62146;53.232;-1.304;2023-03-29T00:59:11;7.60;;;3.70;;
73816;SDS011;62146;53.232;-1.304;2023-03-29T01:01:42;8.85;;;3.78;;
73816;SDS011;62146;53.232;-1.304;2023-03-29T01:04:17;6.95;;;3.70;;
73816;SDS011;62146;53.232;-1.304;2023-03-29T01:06:45;7.65;;;3.60;;
73816;SDS011;62146;53.232;-1.304;2023-03-29T01:09:31;9.30;;;3.97;;
73816;SDS011;62146;53.232;-1.304;2023-03-29T01:12:04;8.55;;;3.63;;
73816;SDS011;62146;53.232;-1.304;2023-03-29T01:14:39;8.38;;;3.80;;
73816;SDS011;62146;53.232;-1.304;2023-03-29T01:17:11;9.27;;;4.18;;
73816;SDS011;62146;53.232;-1.304;2023-03-29T01:19:39;9.32;;;3.97;;
73816;SDS011;62146;53.232;-1.304;2023-03-29T01:30:31;8.30;;;4.03;;
73816;SDS011;62146;53.232;-1.304;2023-03-29T01:33:08;6.43;;;3.50;;
73816;SDS011;62146;53.232;-1.304;2023-03-29T01:35:47;7.27;;;3.70;;
73816;SDS011;62146;53.232;-1.304;2023-03-29T01:38:56;7.05;;;3.60;;
73816;SDS011;62146;53.232;-1.304;2023-03-29T01:41:27;7.68;;;3.15;;
73816;SDS011;62146;53.232;-1.304;2023-03-29T01:44:05;8.52;;;3.22;;
73816;SDS011;62146;53.232;-1.304;2023-03-29T01:46:47;9.45;;;3.60;;
73816;SDS011;62146;53.232;-1.304;2023-03-29T01:52:05;6.57;;;3.72;;
73816;SDS011;62146;53.232;-1.304;2023-03-29T01:54:40;10.18;;;3.90;;
73816;SDS011;62146;53.232;-1.304;2023-03-29T01:57:18;7.25;;;3.80;;
73816;SDS011;62146;53.232;-1.304;2023-03-29T01:59:47;8.07;;;3.78;;
73816;SDS011;62146;53.232;-1.304;2023-03-29T02:02:16;7.73;;;4.03;;
73816;SDS011;62146;53.232;-1.304;2023-03-29T02:04:46;6.68;;;4.18;;
73816;SDS011;62146;53.232;-1.304;2023-03-29T02:07:19;7.68;;;4.85;;
73816;SDS011;62146;53.232;-1.304;2023-03-29T02:09:50;9.57;;;4.15;;
73816;SDS011;62146;53.232;-1.304;2023-03-29T02:12:19;7.97;;;4.20;;
73816;SDS011;62146;53.232;-1.304;2023-03-29T02:14:46;7.77;;;4.63;;
73816;SDS011;62146;53.232;-1.304;2023-03-29T02:17:16;7.88;;;4.30;;
73816;SDS011;62146;53.232;-1.304;2023-03-29T02:19:44;9.88;;;4.60;;
73816;SDS011;62146;53.232;-1.304;2023-03-29T02:22:18;8.60;;;4.85;;
73816;SDS011;62146;53.232;-1.304;2023-03-29T02:24:49;10.10;;;4.35;;
73816;SDS011;62146;53.232;-1.304;2023-03-29T02:27:19;7.97;;;4.43;;
73816;SDS011;62146;53.232;-1.304;2023-03-29T02:29:46;6.97;;;4.20;;
73816;SDS011;62146;53.232;-1.304;2023-03-29T02:32:19;7.75;;;3.97;;
73816;SDS011;62146;53.232;-1.304;2023-03-29T02:34:56;9.90;;;4.30;;
73816;SDS011;62146;53.232;-1.304;2023-03-29T02:37:27;7.20;;;3.97;;
73816;SDS011;62146;53.232;-1.304;2023-03-29T02:39:57;7.10;;;3.80;;
73816;SDS011;62146;53.232;-1.304;2023-03-29T02:42:24;6.85;;;3.67;;
73816;SDS011;62146;53.232;-1.304;2023-03-29T02:44:53;7.40;;;3.60;;
73816;SDS011;62146;53.232;-1.304;2023-03-29T02:47:30;8.98;;;3.80;;
73816;SDS011;62146;53.232;-1.304;2023-03-29T02:50:02;7.95;;;3.70;;
73816;SDS011;62146;53.232;-1.304;2023-03-29T02:52:30;7.90;;;3.67;;
73816;SDS011;62146;53.232;-1.304;2023-03-29T02:55:01;6.68;;;3.95;;
73816;SDS011;62146;53.232;-1.304;2023-03-29T02:57:30;9.40;;;3.70;;
73816;SDS011;62146;53.232;-1.304;2023-03-29T02:59:57;8.80;;;3.97;;
73816;SDS011;62146;53.232;-1.304;2023-03-29T03:02:26;6.50;;;3.70;;
73816;SDS011;62146;53.232;-1.304;2023-03-29T03:04:53;7.93;;;3.77;;
73816;SDS011;62146;53.232;-1.304;2023-03-29T03:07:20;6.78;;;3.60;;
73816;SDS011;62146;53.232;-1.304;2023-03-29T03:09:46;7.15;;;3.70;;
73816;SDS011;62146;53.232;-1.304;2023-03-29T03:12:13;7.43;;;3.80;;
73816;SDS011;62146;53.232;-1.304;2023-03-29T03:14:40;6.03;;;3.40;;
73816;SDS011;62146;53.232;-1.304;2023-03-29T03:17:06;7.97;;;3.70;;
73816;SDS011;62146;53.232;-1.304;2023-03-29T03:19:33;6.88;;;3.60;;
73816;SDS011;62146;53.232;-1.304;2023-03-29T03:22:00;6.57;;;3.20;;
73816;SDS011;62146;53.232;-1.304;2023-03-29T03:24:26;6.95;;;3.70;;
73816;SDS011;62146;53.232;-1.304;2023-03-29T03:26:57;7.18;;;3.25;;
73816;SDS011;62146;53.232;-1.304;2023-03-29T03:29:24;7.23;;;3.53;;
73816;SDS011;62146;53.232;-1.304;2023-03-29T03:31:51;6.38;;;3.30;;
73816;SDS011;62146;53.232;-1.304;2023-03-29T03:34:19;6.28;;;3.65;;
73816;SDS011;62146;53.232;-1.304;2023-03-29T03:36:46;10.23;;;3.97;;
73816;SDS011;62146;53.232;-1.304;2023-03-29T03:39:13;7.10;;;3.63;;
73816;SDS011;62146;53.232;-1.304;2023-03-29T03:41:39;6.53;;;3.27;;
73816;SDS011;62146;53.232;-1.304;2023-03-29T03:44:06;6.68;;;3.40;;
73816;SDS011;62146;53.232;-1.304;2023-03-29T03:46:32;6.72;;;3.47;;
73816;SDS011;62146;53.232;-1.304;2023-03-29T03:48:59;8.48;;;3.63;;
73816;SDS011;62146;53.232;-1.304;2023-03-29T03:51:25;7.60;;;3.50;;
73816;SDS011;62146;53.232;-1.304;2023-03-29T03:53:52;6.40;;;3.50;;
73816;SDS011;62146;53.232;-1.304;2023-03-29T03:56:19;7.45;;;3.75;;
73816;SDS011;62146;53.232;-1.304;2023-03-29T03:58:46;7.40;;;3.42;;
73816;SDS011;62146;53.232;-1.304;2023-03-29T04:01:13;7.25;;;3.80;;
73816;SDS011;62146;53.232;-1.304;2023-03-29T04:03:40;7.10;;;3.47;;
73816;SDS011;62146;53.232;-1.304;2023-03-29T04:06:06;6.73;;;3.73;;
73816;SDS011;62146;53.232;-1.304;2023-03-29T04:08:34;6.60;;;3.80;;
73816;SDS011;62146;53.232;-1.304;2023-03-29T04:11:01;7.85;;;3.80;;
73816;SDS011;62146;53.232;-1.304;2023-03-29T04:13:28;7.35;;;3.70;;
73816;SDS011;62146;53.232;-1.304;2023-03-29T04:15:55;9.55;;;3.78;;
73816;SDS011;62146;53.232;-1.304;2023-03-29T04:18:26;6.17;;;3.33;;
73816;SDS011;62146;53.232;-1.304;2023-03-29T04:20:53;7.30;;;4.22;;
73816;SDS011;62146;53.232;-1.304;2023-03-29T04:23:19;6.82;;;3.40;;
73816;SDS011;62146;53.232;-1.304;2023-03-29T04:25:46;7.07;;;3.67;;
73816;SDS011;62146;53.232;-1.304;2023-03-29T04:28:12;8.55;;;3.70;;
73816;SDS011;62146;53.232;-1.304;2023-03-29T04:30:39;8.10;;;3.57;;
73816;SDS011;62146;53.232;-1.304;2023-03-29T04:33:06;5.82;;;3.38;;
73816;SDS011;62146;53.232;-1.304;2023-03-29T04:35:33;7.38;;;3.55;;
73816;SDS011;62146;53.232;-1.304;2023-03-29T04:38:00;6.85;;;3.55;;
73816;SDS011;62146;53.232;-1.304;2023-03-29T04:40:27;8.20;;;3.38;;
73816;SDS011;62146;53.232;-1.304;2023-03-29T04:42:54;6.43;;;3.73;;
73816;SDS011;62146;53.232;-1.304;2023-03-29T04:45:20;8.65;;;4.13;;
73816;SDS011;62146;53.232;-1.304;2023-03-29T04:47:47;8.15;;;3.60;;
73816;SDS011;62146;53.232;-1.304;2023-03-29T04:50:14;7.68;;;3.83;;
73816;SDS011;62146;53.232;-1.304;2023-03-29T04:52:41;7.97;;;3.97;;
73816;SDS011;62146;53.232;-1.304;2023-03-29T04:55:07;8.67;;;3.97;;
73816;SDS011;62146;53.232;-1.304;2023-03-29T04:57:34;8.35;;;3.65;;
73816;SDS011;62146;53.232;-1.304;2023-03-29T05:00:01;7.90;;;4.30;;
73816;SDS011;62146;53.232;-1.304;2023-03-29T05:02:33;7.53;;;4.00;;
73816;SDS011;62146;53.232;-1.304;2023-03-29T05:05:00;7.65;;;4.07;;
73816;SDS011;62146;53.232;-1.304;2023-03-29T05:07:26;6.90;;;3.80;;
73816;SDS011;62146;53.232;-1.304;2023-03-29T05:09:53;8.45;;;3.85;;
73816;SDS011;62146;53.232;-1.304;2023-03-29T05:12:19;7.47;;;3.70;;
73816;SDS011;62146;53.232;-1.304;2023-03-29T05:14:46;9.80;;;3.90;;
73816;SDS011;62146;53.232;-1.304;2023-03-29T05:17:12;7.20;;;4.00;;
73816;SDS011;62146;53.232;-1.304;2023-03-29T05:19:39;9.93;;;3.83;;
73816;SDS011;62146;53.232;-1.304;2023-03-29T05:22:06;8.10;;;3.60;;
73816;SDS011;62146;53.232;-1.304;2023-03-29T05:24:34;7.53;;;3.92;;
73816;SDS011;62146;53.232;-1.304;2023-03-29T05:27:01;6.95;;;3.35;;
73816;SDS011;62146;53.232;-1.304;2023-03-29T05:29:27;8.48;;;4.15;;
73816;SDS011;62146;53.232;-1.304;2023-03-29T05:31:54;7.43;;;3.53;;
73816;SDS011;62146;53.232;-1.304;2023-03-29T05:34:21;6.65;;;3.63;;
73816;SDS011;62146;53.232;-1.304;2023-03-29T05:36:47;7.55;;;3.67;;
73816;SDS011;62146;53.232;-1.304;2023-03-29T05:39:14;7.10;;;3.65;;
73816;SDS011;62146;53.232;-1.304;2023-03-29T05:41:41;10.45;;;3.80;;
73816;SDS011;62146;53.232;-1.304;2023-03-29T05:44:07;7.80;;;3.47;;
73816;SDS011;62146;53.232;-1.304;2023-03-29T05:46:34;7.72;;;3.30;;
73816;SDS011;62146;53.232;-1.304;2023-03-29T05:49:01;8.95;;;3.88;;
73816;SDS011;62146;53.232;-1.304;2023-03-29T05:51:27;9.10;;;3.80;;
73816;SDS011;62146;53.232;-1.304;2023-03-29T05:53:54;8.32;;;3.28;;
73816;SDS011;62146;53.232;-1.304;2023-03-29T05:56:21;7.53;;;3.40;;
73816;SDS011;62146;53.232;-1.304;2023-03-29T05:58:47;6.68;;;3.50;;
73816;SDS011;62146;53.232;-1.304;2023-03-29T06:01:20;8.07;;;3.88;;
73816;SDS011;62146;53.232;-1.304;2023-03-29T06:03:47;7.90;;;3.63;;
73816;SDS011;62146;53.232;-1.304;2023-03-29T06:06:14;6.78;;;3.08;;
73816;SDS011;62146;53.232;-1.304;2023-03-29T06:08:42;7.83;;;3.83;;
73816;SDS011;62146;53.232;-1.304;2023-03-29T06:11:10;6.28;;;3.22;;
73816;SDS011;62146;53.232;-1.304;2023-03-29T06:13:38;9.07;;;3.53;;
73816;SDS011;62146;53.232;-1.304;2023-03-29T06:16:07;8.27;;;3.47;;
73816;SDS011;62146;53.232;-1.304;2023-03-29T06:18:36;9.73;;;3.95;;
73816;SDS011;62146;53.232;-1.304;2023-03-29T06:21:05;6.80;;;3.40;;
73816;SDS011;62146;53.232;-1.304;2023-03-29T06:23:34;7.93;;;3.80;;
73816;SDS011;62146;53.232;-1.304;2023-03-29T06:26:01;8.45;;;3.75;;
73816;SDS011;62146;53.232;-1.304;2023-03-29T06:28:28;6.57;;;3.53;;
73816;SDS011;62146;53.232;-1.304;2023-03-29T06:30:55;9.68;;;3.90;;
73816;SDS011;62146;53.232;-1.304;2023-03-29T06:33:22;9.20;;;4.03;;
73816;SDS011;62146;53.232;-1.304;2023-03-29T06:35:50;8.88;;;4.18;;
73816;SDS011;62146;53.232;-1.304;2023-03-29T06:38:17;9.43;;;4.55;;
73816;SDS011;62146;53.232;-1.304;2023-03-29T06:40:44;10.60;;;4.38;;
73816;SDS011;62146;53.232;-1.304;2023-03-29T06:43:12;11.07;;;4.63;;
73816;SDS011;62146;53.232;-1.304;2023-03-29T06:45:39;11.40;;;4.20;;
73816;SDS011;62146;53.232;-1.304;2023-03-29T06:48:06;8.18;;;4.10;;
73816;SDS011;62146;53.232;-1.304;2023-03-29T06:50:33;10.38;;;4.63;;
73816;SDS011;62146;53.232;-1.304;2023-03-29T06:53:00;9.68;;;4.50;;
73816;SDS011;62146;53.232;-1.304;2023-03-29T06:55:27;11.93;;;4.20;;
73816;SDS011;62146;53.232;-1.304;2023-03-29T06:57:54;11.10;;;4.60;;
73816;SDS011;62146;53.232;-1.304;2023-03-29T07:00:20;9.48;;;4.20;;
73816;SDS011;62146;53.232;-1.304;2023-03-29T07:02:54;9.68;;;4.30;;
73816;SDS011;62146;53.232;-1.304;2023-03-29T07:05:24;10.82;;;4.47;;
73816;SDS011;62146;53.232;-1.304;2023-03-29T07:07:52;11.05;;;4.85;;
73816;SDS011;62146;53.232;-1.304;2023-03-29T07:10:26;8.70;;;3.97;;
73816;SDS011;62146;53.232;-1.304;2023-03-29T07:12:58;9.48;;;4.60;;
73816;SDS011;62146;53.232;-1.304;2023-03-29T07:15:28;8.68;;;4.25;;
73816;SDS011;62146;53.232;-1.304;2023-03-29T07:17:55;10.88;;;4.10;;
73816;SDS011;62146;53.232;-1.304;2023-03-29T07:20:22;8.18;;;4.03;;
73816;SDS011;62146;53.232;-1.304;2023-03-29T07:22:50;11.27;;;4.17;;
73816;SDS011;62146;53.232;-1.304;2023-03-29T07:25:17;9.55;;;4.10;;
73816;SDS011;62146;53.232;-1.304;2023-03-29T07:27:44;8.38;;;3.95;;
73816;SDS011;62146;53.232;-1.304;2023-03-29T07:30:16;8.60;;;3.80;;
73816;SDS011;62146;53.232;-1.304;2023-03-29T07:32:46;8.25;;;3.80;;
73816;SDS011;62146;53.232;-1.304;2023-03-29T07:35:13;10.50;;;3.40;;
73816;SDS011;62146;53.232;-1.304;2023-03-29T07:37:40;6.75;;;2.97;;
73816;SDS011;62146;53.232;-1.304;2023-03-29T07:40:08;9.90;;;3.47;;
73816;SDS011;62146;53.232;-1.304;2023-03-29T07:42:50;8.52;;;3.20;;
73816;SDS011;62146;53.232;-1.304;2023-03-29T07:45:20;7.22;;;3.03;;
73816;SDS011;62146;53.232;-1.304;2023-03-29T07:47:54;9.47;;;4.00;;
73816;SDS011;62146;53.232;-1.304;2023-03-29T07:50:23;10.32;;;4.47;;
73816;SDS011;62146;53.232;-1.304;2023-03-29T07:52:50;13.60;;;5.72;;
73816;SDS011;62146;53.232;-1.304;2023-03-29T07:55:18;10.57;;;4.55;;
73816;SDS011;62146;53.232;-1.304;2023-03-29T07:57:45;11.52;;;5.18;;
73816;SDS011;62146;53.232;-1.304;2023-03-29T08:00:11;9.17;;;4.03;;
73816;SDS011;62146;53.232;-1.304;2023-03-29T08:02:42;10.20;;;4.25;;
73816;SDS011;62146;53.232;-1.304;2023-03-29T08:05:13;9.15;;;4.30;;
73816;SDS011;62146;53.232;-1.304;2023-03-29T08:07:54;10.43;;;3.95;;
73816;SDS011;62146;53.232;-1.304;2023-03-29T08:10:21;8.63;;;4.32;;
73816;SDS011;62146;53.232;-1.304;2023-03-29T08:12:48;7.43;;;3.43;;
73816;SDS011;62146;53.232;-1.304;2023-03-29T08:15:15;8.40;;;3.72;;
73816;SDS011;62146;53.232;-1.304;2023-03-29T08:17:42;8.50;;;4.10;;
73816;SDS011;62146;53.232;-1.304;2023-03-29T08:20:10;10.48;;;3.88;;
73816;SDS011;62146;53.232;-1.304;2023-03-29T08:22:40;10.63;;;4.53;;
73816;SDS011;62146;53.232;-1.304;2023-03-29T08:25:07;8.00;;;3.80;;
73816;SDS011;62146;53.232;-1.304;2023-03-29T08:27:34;9.68;;;3.88;;
73816;SDS011;62146;53.232;-1.304;2023-03-29T08:30:05;9.85;;;4.28;;
73816;SDS011;62146;53.232;-1.304;2023-03-29T08:32:35;8.93;;;4.10;;
73816;SDS011;62146;53.232;-1.304;2023-03-29T08:35:03;10.95;;;4.40;;
73816;SDS011;62146;53.232;-1.304;2023-03-29T08:37:32;10.33;;;4.13;;
73816;SDS011;62146;53.232;-1.304;2023-03-29T08:39:59;14.55;;;4.97;;
73816;SDS011;62146;53.232;-1.304;2023-03-29T08:50:34;9.83;;;4.20;;
73816;SDS011;62146;53.232;-1.304;2023-03-29T08:53:04;11.10;;;4.72;;
73816;SDS011;62146;53.232;-1.304;2023-03-29T08:55:39;10.95;;;4.15;;
73816;SDS011;62146;53.232;-1.304;2023-03-29T08:58:13;9.52;;;4.72;;
73816;SDS011;62146;53.232;-1.304;2023-03-29T09:00:44;10.20;;;4.32;;
73816;SDS011;62146;53.232;-1.304;2023-03-29T09:03:18;9.53;;;4.37;;
73816;SDS011;62146;53.232;-1.304;2023-03-29T09:06:22;8.85;;;3.60;;
73816;SDS011;62146;53.232;-1.304;2023-03-29T09:08:45;9.18;;;4.47;;
73816;SDS011;62146;53.232;-1.304;2023-03-29T09:19:21;9.80;;;3.15;;
73816;SDS011;62146;53.232;-1.304;2023-03-29T09:27:27;8.70;;;3.20;;
73816;SDS011;62146;53.232;-1.304;2023-03-29T09:30:13;8.40;;;2.73;;
73816;SDS011;62146;53.232;-1.304;2023-03-29T09:32:52;10.10;;;2.95;;
73816;SDS011;62146;53.232;-1.304;2023-03-29T09:35:23;8.90;;;2.70;;
73816;SDS011;62146;53.232;-1.304;2023-03-29T09:38:02;6.47;;;2.40;;
73816;SDS011;62146;53.232;-1.304;2023-03-29T09:43:13;7.07;;;2.40;;
73816;SDS011;62146;53.232;-1.304;2023-03-29T09:45:44;5.65;;;2.10;;
73816;SDS011;62146;53.232;-1.304;2023-03-29T09:48:16;10.68;;;2.50;;
73816;SDS011;62146;53.232;-1.304;2023-03-29T09:50:45;5.72;;;2.20;;
73816;SDS011;62146;53.232;-1.304;2023-03-29T09:53:16;5.82;;;2.17;;
73816;SDS011;62146;53.232;-1.304;2023-03-29T09:55:44;7.97;;;2.10;;
73816;SDS011;62146;53.232;-1.304;2023-03-29T09:58:16;10.57;;;2.47;;
73816;SDS011;62146;53.232;-1.304;2023-03-29T10:00:45;5.70;;;1.98;;
73816;SDS011;62146;53.232;-1.304;2023-03-29T10:03:17;7.32;;;2.20;;
73816;SDS011;62146;53.232;-1.304;2023-03-29T10:05:45;6.30;;;2.00;;
73816;SDS011;62146;53.232;-1.304;2023-03-29T10:08:17;5.80;;;2.13;;
73816;SDS011;62146;53.232;-1.304;2023-03-29T10:10:47;6.78;;;2.10;;
73816;SDS011;62146;53.232;-1.304;2023-03-29T10:13:21;6.72;;;2.00;;
73816;SDS011;62146;53.232;-1.304;2023-03-29T10:16:00;6.03;;;2.08;;
73816;SDS011;62146;53.232;-1.304;2023-03-29T10:18:33;5.93;;;1.88;;
73816;SDS011;62146;53.232;-1.304;2023-03-29T10:21:08;6.37;;;1.97;;
73816;SDS011;62146;53.232;-1.304;2023-03-29T10:23:38;5.35;;;2.13;;
73816;SDS011;62146;53.232;-1.304;2023-03-29T10:26:05;6.55;;;1.75;;
73816;SDS011;62146;53.232;-1.304;2023-03-29T10:28:41;6.85;;;2.42;;
73816;SDS011;62146;53.232;-1.304;2023-03-29T10:31:08;5.65;;;2.17;;
73816;SDS011;62146;53.232;-1.304;2023-03-29T10:33:48;6.60;;;2.27;;
73816;SDS011;62146;53.232;-1.304;2023-03-29T10:36:21;8.18;;;2.20;;
73816;SDS011;62146;53.232;-1.304;2023-03-29T10:38:51;5.70;;;2.00;;
73816;SDS011;62146;53.232;-1.304;2023-03-29T10:41:21;6.60;;;2.10;;
73816;SDS011;62146;53.232;-1.304;2023-03-29T10:43:50;7.30;;;2.00;;
73816;SDS011;62146;53.232;-1.304;2023-03-29T10:48:47;7.05;;;2.22;;
73816;SDS011;62146;53.232;-1.304;2023-03-29T10:51:16;7.00;;;2.22;;
73816;SDS011;62146;53.232;-1.304;2023-03-29T10:53:44;6.70;;;2.20;;
73816;SDS011;62146;53.232;-1.304;2023-03-29T11:01:22;6.75;;;2.50;;
73816;SDS011;62146;53.232;-1.304;2023-03-29T11:04:10;7.60;;;2.15;;
73816;SDS011;62146;53.232;-1.304;2023-03-29T11:07:08;7.68;;;2.28;;
73816;SDS011;62146;53.232;-1.304;2023-03-29T11:27:26;5.90;;;2.07;;
73816;SDS011;62146;53.232;-1.304;2023-03-29T11:30:06;6.90;;;1.85;;
73816;SDS011;62146;53.232;-1.304;2023-03-29T11:32:59;5.82;;;1.92;;
73816;SDS011;62146;53.232;-1.304;2023-03-29T11:38:24;6.00;;;2.30;;
73816;SDS011;62146;53.232;-1.304;2023-03-29T11:41:04;4.53;;;2.23;;
73816;SDS011;62146;53.232;-1.304;2023-03-29T11:46:39;11.30;;;5.00;;
73816;SDS011;62146;53.232;-1.304;2023-03-29T11:49:32;11.55;;;4.65;;
73816;SDS011;62146;53.232;-1.304;2023-03-29T11:52:10;11.80;;;4.85;;
73816;SDS011;62146;53.232;-1.304;2023-03-29T11:54:45;11.67;;;4.80;;
73816;SDS011;62146;53.232;-1.304;2023-03-29T12:00:20;10.65;;;4.63;;
73816;SDS011;62146;53.232;-1.304;2023-03-29T12:03:04;10.55;;;4.60;;
73816;SDS011;62146;53.232;-1.304;2023-03-29T12:05:39;10.25;;;4.13;;
73816;SDS011;62146;53.232;-1.304;2023-03-29T12:10:41;9.70;;;4.38;;
73816;SDS011;62146;53.232;-1.304;2023-03-29T12:15:43;9.80;;;4.20;;
73816;SDS011;62146;53.232;-1.304;2023-03-29T12:18:16;7.90;;;3.85;;
73816;SDS011;62146;53.232;-1.304;2023-03-29T12:20:58;7.23;;;3.93;;
73816;SDS011;62146;53.232;-1.304;2023-03-29T12:23:30;8.57;;;3.78;;
73816;SDS011;62146;53.232;-1.304;2023-03-29T12:34:19;7.30;;;2.90;;
73816;SDS011;62146;53.232;-1.304;2023-03-29T12:39:30;5.32;;;2.70;;
73816;SDS011;62146;53.232;-1.304;2023-03-29T12:42:16;5.75;;;2.53;;
73816;SDS011;62146;53.232;-1.304;2023-03-29T12:44:58;6.13;;;2.63;;
73816;SDS011;62146;53.232;-1.304;2023-03-29T12:47:30;5.77;;;2.10;;
73816;SDS011;62146;53.232;-1.304;2023-03-29T12:50:01;4.75;;;1.95;;
73816;SDS011;62146;53.232;-1.304;2023-03-29T12:52:33;5.05;;;2.00;;
73816;SDS011;62146;53.232;-1.304;2023-03-29T12:55:02;5.03;;;2.03;;
73816;SDS011;62146;53.232;-1.304;2023-03-29T12:58:01;4.00;;;1.60;;
73816;SDS011;62146;53.232;-1.304;2023-03-29T13:05:58;4.07;;;1.70;;
73816;SDS011;62146;53.232;-1.304;2023-03-29T13:08:34;4.30;;;1.67;;
73816;SDS011;62146;53.232;-1.304;2023-03-29T13:11:02;4.47;;;1.70;;
73816;SDS011;62146;53.232;-1.304;2023-03-29T13:13:33;3.73;;;1.43;;
73816;SDS011;62146;53.232;-1.304;2023-03-29T13:16:12;3.65;;;1.42;;
73816;SDS011;62146;53.232;-1.304;2023-03-29T13:27:44;3.70;;;1.40;;
73816;SDS011;62146;53.232;-1.304;2023-03-29T13:39:21;4.43;;;1.30;;
73816;SDS011;62146;53.232;-1.304;2023-03-29T13:42:05;3.37;;;1.20;;
73816;SDS011;62146;53.232;-1.304;2023-03-29T13:45:13;3.67;;;1.33;;
73816;SDS011;62146;53.232;-1.304;2023-03-29T13:47:48;3.42;;;1.30;;
73816;SDS011;62146;53.232;-1.304;2023-03-29T13:50:37;2.97;;;1.10;;
73816;SDS011;62146;53.232;-1.304;2023-03-29T13:53:22;2.65;;;0.80;;
73816;SDS011;62146;53.232;-1.304;2023-03-29T13:55:58;2.83;;;1.17;;
73816;SDS011;62146;53.232;-1.304;2023-03-29T14:01:27;3.05;;;1.20;;
73816;SDS011;62146;53.232;-1.304;2023-03-29T14:04:01;3.70;;;1.27;;
73816;SDS011;62146;53.232;-1.304;2023-03-29T14:06:33;2.83;;;1.27;;
73816;SDS011;62146;53.232;-1.304;2023-03-29T14:09:04;3.03;;;1.00;;
73816;SDS011;62146;53.232;-1.304;2023-03-29T14:11:33;2.15;;;0.90;;
73816;SDS011;62146;53.232;-1.304;2023-03-29T14:14:01;2.55;;;0.90;;
73816;SDS011;62146;53.232;-1.304;2023-03-29T14:16:34;2.15;;;0.80;;
73816;SDS011;62146;53.232;-1.304;2023-03-29T14:19:14;3.40;;;0.93;;
73816;SDS011;62146;53.232;-1.304;2023-03-29T14:21:44;2.47;;;0.90;;
73816;SDS011;62146;53.232;-1.304;2023-03-29T14:24:15;2.70;;;0.90;;
73816;SDS011;62146;53.232;-1.304;2023-03-29T14:26:46;2.35;;;0.93;;
73816;SDS011;62146;53.232;-1.304;2023-03-29T14:29:13;2.40;;;0.90;;
73816;SDS011;62146;53.232;-1.304;2023-03-29T14:31:41;2.83;;;1.00;;
73816;SDS011;62146;53.232;-1.304;2023-03-29T14:34:14;3.10;;;0.90;;
73816;SDS011;62146;53.232;-1.304;2023-03-29T14:36:44;2.17;;;0.90;;
73816;SDS011;62146;53.232;-1.304;2023-03-29T14:39:15;2.60;;;0.90;;
73816;SDS011;62146;53.232;-1.304;2023-03-29T14:41:50;2.00;;;0.80;;
73816;SDS011;62146;53.232;-1.304;2023-03-29T14:44:20;3.00;;;0.93;;
73816;SDS011;62146;53.232;-1.304;2023-03-29T14:46:50;5.07;;;0.90;;
73816;SDS011;62146;53.232;-1.304;2023-03-29T14:49:17;3.03;;;1.00;;
73816;SDS011;62146;53.232;-1.304;2023-03-29T14:51:46;2.97;;;1.00;;
73816;SDS011;62146;53.232;-1.304;2023-03-29T14:54:35;1.80;;;0.80;;
73816;SDS011;62146;53.232;-1.304;2023-03-29T14:57:02;2.03;;;0.80;;
73816;SDS011;62146;53.232;-1.304;2023-03-29T14:59:36;3.70;;;1.47;;
73816;SDS011;62146;53.232;-1.304;2023-03-29T15:02:23;2.80;;;0.90;;
73816;SDS011;62146;53.232;-1.304;2023-03-29T15:05:05;3.03;;;1.00;;
73816;SDS011;62146;53.232;-1.304;2023-03-29T15:07:50;2.13;;;0.75;;
73816;SDS011;62146;53.232;-1.304;2023-03-29T15:10:16;1.65;;;0.70;;
73816;SDS011;62146;53.232;-1.304;2023-03-29T15:12:44;2.70;;;0.80;;
73816;SDS011;62146;53.232;-1.304;2023-03-29T15:15:11;2.33;;;0.70;;
73816;SDS011;62146;53.232;-1.304;2023-03-29T15:17:39;1.75;;;0.63;;
73816;SDS011;62146;53.232;-1.304;2023-03-29T15:20:18;2.00;;;0.70;;
73816;SDS011;62146;53.232;-1.304;2023-03-29T15:22:53;3.22;;;0.60;;
73816;SDS011;62146;53.232;-1.304;2023-03-29T15:25:30;3.30;;;0.80;;
73816;SDS011;62146;53.232;-1.304;2023-03-29T15:27:59;2.88;;;0.75;;
73816;SDS011;62146;53.232;-1.304;2023-03-29T15:30:37;2.33;;;0.75;;
73816;SDS011;62146;53.232;-1.304;2023-03-29T15:33:18;2.85;;;0.95;;
73816;SDS011;62146;53.232;-1.304;2023-03-29T15:35:48;2.65;;;0.77;;
73816;SDS011;62146;53.232;-1.304;2023-03-29T15:38:17;2.50;;;0.80;;
73816;SDS011;62146;53.232;-1.304;2023-03-29T15:40:52;3.83;;;0.90;;
73816;SDS011;62146;53.232;-1.304;2023-03-29T15:43:19;3.47;;;1.10;;
73816;SDS011;62146;53.232;-1.304;2023-03-29T15:45:47;3.33;;;0.80;;
73816;SDS011;62146;53.232;-1.304;2023-03-29T15:48:14;3.25;;;0.80;;
73816;SDS011;62146;53.232;-1.304;2023-03-29T15:50:44;4.37;;;0.93;;
73816;SDS011;62146;53.232;-1.304;2023-03-29T15:53:11;2.63;;;0.95;;
73816;SDS011;62146;53.232;-1.304;2023-03-29T15:55:41;3.85;;;0.80;;
73816;SDS011;62146;53.232;-1.304;2023-03-29T15:58:14;2.75;;;1.00;;
73816;SDS011;62146;53.232;-1.304;2023-03-29T16:00:46;2.75;;;1.08;;
73816;SDS011;62146;53.232;-1.304;2023-03-29T16:03:16;2.23;;;0.80;;
73816;SDS011;62146;53.232;-1.304;2023-03-29T16:05:44;2.85;;;0.90;;
73816;SDS011;62146;53.232;-1.304;2023-03-29T16:08:11;3.28;;;1.10;;
73816;SDS011;62146;53.232;-1.304;2023-03-29T16:10:39;5.47;;;1.60;;
73816;SDS011;62146;53.232;-1.304;2023-03-29T16:13:08;6.35;;;1.80;;
73816;SDS011;62146;53.232;-1.304;2023-03-29T16:15:37;4.90;;;1.37;;
73816;SDS011;62146;53.232;-1.304;2023-03-29T16:18:06;4.57;;;1.60;;
73816;SDS011;62146;53.232;-1.304;2023-03-29T16:20:33;6.03;;;1.90;;
73816;SDS011;62146;53.232;-1.304;2023-03-29T16:23:00;5.00;;;2.00;;
73816;SDS011;62146;53.232;-1.304;2023-03-29T16:25:26;5.55;;;2.70;;
73816;SDS011;62146;53.232;-1.304;2023-03-29T16:27:53;5.33;;;2.20;;
73816;SDS011;62146;53.232;-1.304;2023-03-29T16:30:20;6.13;;;2.50;;
73816;SDS011;62146;53.232;-1.304;2023-03-29T16:32:46;4.63;;;2.15;;
73816;SDS011;62146;53.232;-1.304;2023-03-29T16:35:46;5.80;;;2.22;;
73816;SDS011;62146;53.232;-1.304;2023-03-29T16:38:07;5.30;;;2.30;;
73816;SDS011;62146;53.232;-1.304;2023-03-29T16:40:34;6.77;;;2.13;;
73816;SDS011;62146;53.232;-1.304;2023-03-29T16:43:01;8.45;;;2.60;;
73816;SDS011;62146;53.232;-1.304;2023-03-29T16:45:28;5.25;;;2.20;;
73816;SDS011;62146;53.232;-1.304;2023-03-29T16:47:55;5.85;;;1.85;;